sensor_id;sensor_type;location;lat;lon;timestamp;pressure;altitude;pressure_sealevel;temperature;humidity
63691;BME280;49837;57.280;27.070;2023-02-24T00:00:21;99147.2;;;-5.92;95.42
63691;BME280;49837;57.280;27.070;2023-02-24T00:01:22;99143.86;;;-5.9;95.47
63691;BME280;49837;57.280;27.070;2023-02-24T00:02:22;99141.76;;;-5.88;95.49
63691;BME280;49837;57.280;27.070;2023-02-24T00:03:22;99137.95;;;-5.84;95.65
63691;BME280;49837;57.280;27.070;2023-02-24T00:04:23;99138.05;;;-5.83;95.63
63691;BME280;49837;57.280;27.070;2023-02-24T00:05:23;99135.34;;;-5.89;95.65
63691;BME280;49837;57.280;27.070;2023-02-24T00:06:28;99129.97;;;-5.9;95.75
63691;BME280;49837;57.280;27.070;2023-02-24T00:07:26;99128.45;;;-5.84;95.86
63691;BME280;49837;57.280;27.070;2023-02-24T00:08:26;99129.62;;;-5.82;95.87
63691;BME280;49837;57.280;27.070;2023-02-24T00:09:27;99129.62;;;-5.82;95.86
63691;BME280;49837;57.280;27.070;2023-02-24T00:10:27;99125.22;;;-5.79;95.88
63691;BME280;49837;57.280;27.070;2023-02-24T00:11:27;99122.2;;;-5.8;95.85
63691;BME280;49837;57.280;27.070;2023-02-24T00:12:27;99118.03;;;-5.82;95.85
63691;BME280;49837;57.280;27.070;2023-02-24T00:13:28;99118.48;;;-5.83;95.84
63691;BME280;49837;57.280;27.070;2023-02-24T00:14:31;99120.81;;;-5.8;95.82
63691;BME280;49837;57.280;27.070;2023-02-24T00:15:29;99116.02;;;-5.8;95.86
63691;BME280;49837;57.280;27.070;2023-02-24T00:16:30;99106.96;;;-5.82;95.89
63691;BME280;49837;57.280;27.070;2023-02-24T00:17:30;99110.5;;;-5.84;95.99
63691;BME280;49837;57.280;27.070;2023-02-24T00:18:31;99105.11;;;-5.81;96.11
63691;BME280;49837;57.280;27.070;2023-02-24T00:19:31;99104.53;;;-5.78;96.12
63691;BME280;49837;57.280;27.070;2023-02-24T00:20:32;99103.84;;;-5.76;96.09
63691;BME280;49837;57.280;27.070;2023-02-24T00:21:32;99102.8;;;-5.75;96.06
63691;BME280;49837;57.280;27.070;2023-02-24T00:22:32;99097.73;;;-5.77;96.01
63691;BME280;49837;57.280;27.070;2023-02-24T00:23:35;99094.36;;;-5.75;96.05
63691;BME280;49837;57.280;27.070;2023-02-24T00:24:33;99093.17;;;-5.73;96.13
63691;BME280;49837;57.280;27.070;2023-02-24T00:25:33;99089.74;;;-5.7;96.14
63691;BME280;49837;57.280;27.070;2023-02-24T00:26:34;99086.1;;;-5.69;96.12
63691;BME280;49837;57.280;27.070;2023-02-24T00:27:34;99084.09;;;-5.76;96.12
63691;BME280;49837;57.280;27.070;2023-02-24T00:28:35;99080.83;;;-5.77;96.2
63691;BME280;49837;57.280;27.070;2023-02-24T00:29:35;99084.04;;;-5.75;96.32
63691;BME280;49837;57.280;27.070;2023-02-24T00:30:35;99075.77;;;-5.7;96.36
63691;BME280;49837;57.280;27.070;2023-02-24T00:31:36;99075.69;;;-5.66;96.27
63691;BME280;49837;57.280;27.070;2023-02-24T00:32:36;99073.2;;;-5.67;96.21
63691;BME280;49837;57.280;27.070;2023-02-24T00:33:36;99068.62;;;-5.7;96.22
63691;BME280;49837;57.280;27.070;2023-02-24T00:34:37;99066.49;;;-5.71;96.26
63691;BME280;49837;57.280;27.070;2023-02-24T00:35:37;99064.06;;;-5.75;96.34
63691;BME280;49837;57.280;27.070;2023-02-24T00:36:38;99062.16;;;-5.71;96.43
63691;BME280;49837;57.280;27.070;2023-02-24T00:37:38;99061.55;;;-5.65;96.42
63691;BME280;49837;57.280;27.070;2023-02-24T00:38:39;99062.09;;;-5.62;96.39
63691;BME280;49837;57.280;27.070;2023-02-24T00:39:40;99060.75;;;-5.6;96.42
63691;BME280;49837;57.280;27.070;2023-02-24T00:40:40;99053.47;;;-5.58;96.35
63691;BME280;49837;57.280;27.070;2023-02-24T00:41:41;99057.22;;;-5.57;96.35
63691;BME280;49837;57.280;27.070;2023-02-24T00:42:41;99051.42;;;-5.59;96.36
63691;BME280;49837;57.280;27.070;2023-02-24T00:43:42;99046.87;;;-5.59;96.38
63691;BME280;49837;57.280;27.070;2023-02-24T00:44:45;99042.81;;;-5.59;96.46
63691;BME280;49837;57.280;27.070;2023-02-24T00:45:42;99042.48;;;-5.59;96.48
63691;BME280;49837;57.280;27.070;2023-02-24T00:46:44;99033.59;;;-5.55;96.45
63691;BME280;49837;57.280;27.070;2023-02-24T00:47:43;99037.23;;;-5.53;96.41
63691;BME280;49837;57.280;27.070;2023-02-24T00:48:44;99035.0;;;-5.55;96.43
63691;BME280;49837;57.280;27.070;2023-02-24T00:49:44;99030.55;;;-5.58;96.48
63691;BME280;49837;57.280;27.070;2023-02-24T00:50:45;99029.34;;;-5.53;96.48
63691;BME280;49837;57.280;27.070;2023-02-24T00:51:47;99029.27;;;-5.47;96.45
63691;BME280;49837;57.280;27.070;2023-02-24T00:52:47;99024.27;;;-5.45;96.32
63691;BME280;49837;57.280;27.070;2023-02-24T00:53:46;99022.3;;;-5.46;96.23
63691;BME280;49837;57.280;27.070;2023-02-24T00:54:48;99019.71;;;-5.51;96.22
63691;BME280;49837;57.280;27.070;2023-02-24T00:55:46;99018.43;;;-5.55;96.37
63691;BME280;49837;57.280;27.070;2023-02-24T00:56:47;99017.83;;;-5.52;96.39
63691;BME280;49837;57.280;27.070;2023-02-24T00:57:48;99019.04;;;-5.51;96.43
63691;BME280;49837;57.280;27.070;2023-02-24T00:58:48;99011.66;;;-5.5;96.47
63691;BME280;49837;57.280;27.070;2023-02-24T00:59:48;99008.83;;;-5.51;96.55
63691;BME280;49837;57.280;27.070;2023-02-24T01:00:48;99009.72;;;-5.5;96.62
63691;BME280;49837;57.280;27.070;2023-02-24T01:01:50;99006.59;;;-5.49;96.53
63691;BME280;49837;57.280;27.070;2023-02-24T01:02:49;99010.39;;;-5.45;96.43
63691;BME280;49837;57.280;27.070;2023-02-24T01:03:50;99004.61;;;-5.49;96.47
63691;BME280;49837;57.280;27.070;2023-02-24T01:04:50;99004.85;;;-5.49;96.63
63691;BME280;49837;57.280;27.070;2023-02-24T01:05:51;99005.43;;;-5.5;96.67
63691;BME280;49837;57.280;27.070;2023-02-24T01:06:52;98999.56;;;-5.5;96.65
63691;BME280;49837;57.280;27.070;2023-02-24T01:07:51;99000.78;;;-5.51;96.75
63691;BME280;49837;57.280;27.070;2023-02-24T01:08:53;98999.42;;;-5.5;96.8
63691;BME280;49837;57.280;27.070;2023-02-24T01:09:52;98998.73;;;-5.52;96.8
63691;BME280;49837;57.280;27.070;2023-02-24T01:10:59;98999.02;;;-5.48;96.8
63691;BME280;49837;57.280;27.070;2023-02-24T01:11:57;98997.61;;;-5.45;96.81
63691;BME280;49837;57.280;27.070;2023-02-24T01:12:57;98994.55;;;-5.43;96.84
63691;BME280;49837;57.280;27.070;2023-02-24T01:13:58;98991.11;;;-5.45;96.84
63691;BME280;49837;57.280;27.070;2023-02-24T01:14:57;98989.46;;;-5.46;96.86
63691;BME280;49837;57.280;27.070;2023-02-24T01:15:59;98988.98;;;-5.41;96.86
63691;BME280;49837;57.280;27.070;2023-02-24T01:16:58;98987.69;;;-5.41;96.82
63691;BME280;49837;57.280;27.070;2023-02-24T01:17:59;98983.48;;;-5.44;96.83
63691;BME280;49837;57.280;27.070;2023-02-24T01:19:00;98984.84;;;-5.47;96.87
63691;BME280;49837;57.280;27.070;2023-02-24T01:20:00;98982.62;;;-5.42;96.89
63691;BME280;49837;57.280;27.070;2023-02-24T01:21:00;98980.75;;;-5.42;96.8
63691;BME280;49837;57.280;27.070;2023-02-24T01:22:03;98978.08;;;-5.42;96.77
63691;BME280;49837;57.280;27.070;2023-02-24T01:23:01;98973.12;;;-5.41;96.84
63691;BME280;49837;57.280;27.070;2023-02-24T01:24:01;98970.78;;;-5.41;96.81
63691;BME280;49837;57.280;27.070;2023-02-24T01:25:02;98971.03;;;-5.4;96.77
63691;BME280;49837;57.280;27.070;2023-02-24T01:26:02;98970.91;;;-5.43;96.81
63691;BME280;49837;57.280;27.070;2023-02-24T01:27:04;98968.55;;;-5.43;96.89
63691;BME280;49837;57.280;27.070;2023-02-24T01:28:03;98965.41;;;-5.42;97.01
63691;BME280;49837;57.280;27.070;2023-02-24T01:29:03;98968.59;;;-5.41;97.14
63691;BME280;49837;57.280;27.070;2023-02-24T01:30:04;98962.69;;;-5.39;96.99
63691;BME280;49837;57.280;27.070;2023-02-24T01:31:05;98964.33;;;-5.38;96.97
63691;BME280;49837;57.280;27.070;2023-02-24T01:32:12;98955.08;;;-5.41;97.01
63691;BME280;49837;57.280;27.070;2023-02-24T01:33:05;98957.6;;;-5.37;96.92
63691;BME280;49837;57.280;27.070;2023-02-24T01:34:06;98958.23;;;-5.33;96.95
63691;BME280;49837;57.280;27.070;2023-02-24T01:35:07;98949.06;;;-5.32;96.94
63691;BME280;49837;57.280;27.070;2023-02-24T01:36:09;98944.78;;;-5.3;96.96
63691;BME280;49837;57.280;27.070;2023-02-24T01:37:08;98947.38;;;-5.34;96.83
63691;BME280;49837;57.280;27.070;2023-02-24T01:38:08;98944.6;;;-5.35;96.81
63691;BME280;49837;57.280;27.070;2023-02-24T01:39:09;98941.25;;;-5.33;96.82
63691;BME280;49837;57.280;27.070;2023-02-24T01:40:11;98943.75;;;-5.32;96.84
63691;BME280;49837;57.280;27.070;2023-02-24T01:41:11;98937.5;;;-5.32;96.89
63691;BME280;49837;57.280;27.070;2023-02-24T01:42:13;98935.91;;;-5.35;96.94
63691;BME280;49837;57.280;27.070;2023-02-24T01:43:11;98935.66;;;-5.35;96.92
63691;BME280;49837;57.280;27.070;2023-02-24T01:45:19;98926.26;;;-5.35;97.0
63691;BME280;49837;57.280;27.070;2023-02-24T01:46:17;98922.91;;;-5.35;97.06
63691;BME280;49837;57.280;27.070;2023-02-24T01:47:18;98922.21;;;-5.34;97.17
63691;BME280;49837;57.280;27.070;2023-02-24T01:48:18;98920.62;;;-5.32;97.22
63691;BME280;49837;57.280;27.070;2023-02-24T01:50:22;98912.48;;;-5.36;97.25
63691;BME280;49837;57.280;27.070;2023-02-24T01:51:23;98914.44;;;-5.37;97.32
63691;BME280;49837;57.280;27.070;2023-02-24T01:52:25;98910.16;;;-5.34;97.38
63691;BME280;49837;57.280;27.070;2023-02-24T01:53:25;98906.84;;;-5.34;97.39
63691;BME280;49837;57.280;27.070;2023-02-24T01:54:28;98911.53;;;-5.36;97.41
63691;BME280;49837;57.280;27.070;2023-02-24T01:56:31;98910.09;;;-5.35;97.46
63691;BME280;49837;57.280;27.070;2023-02-24T01:57:32;98905.0;;;-5.33;97.56
63691;BME280;49837;57.280;27.070;2023-02-24T01:58:33;98902.08;;;-5.31;97.57
63691;BME280;49837;57.280;27.070;2023-02-24T01:59:33;98897.09;;;-5.33;97.61
63691;BME280;49837;57.280;27.070;2023-02-24T02:00:33;98895.08;;;-5.33;97.55
63691;BME280;49837;57.280;27.070;2023-02-24T02:01:34;98896.51;;;-5.34;97.6
63691;BME280;49837;57.280;27.070;2023-02-24T02:02:34;98897.23;;;-5.34;97.62
63691;BME280;49837;57.280;27.070;2023-02-24T02:03:36;98887.7;;;-5.37;97.65
63691;BME280;49837;57.280;27.070;2023-02-24T02:05:39;98888.14;;;-5.3;97.74
63691;BME280;49837;57.280;27.070;2023-02-24T02:06:37;98885.36;;;-5.29;97.75
63691;BME280;49837;57.280;27.070;2023-02-24T02:07:39;98880.58;;;-5.28;97.77
63691;BME280;49837;57.280;27.070;2023-02-24T02:08:41;98878.94;;;-5.31;97.69
63691;BME280;49837;57.280;27.070;2023-02-24T02:09:39;98875.22;;;-5.28;97.63
63691;BME280;49837;57.280;27.070;2023-02-24T02:10:40;98873.45;;;-5.27;97.61
63691;BME280;49837;57.280;27.070;2023-02-24T02:11:41;98873.3;;;-5.26;97.69
63691;BME280;49837;57.280;27.070;2023-02-24T02:12:41;98867.81;;;-5.28;97.68
63691;BME280;49837;57.280;27.070;2023-02-24T02:13:42;98865.89;;;-5.26;97.69
63691;BME280;49837;57.280;27.070;2023-02-24T02:14:44;98861.95;;;-5.25;97.64
63691;BME280;49837;57.280;27.070;2023-02-24T02:15:48;98856.81;;;-5.24;97.69
63691;BME280;49837;57.280;27.070;2023-02-24T02:41:59;98813.77;;;-5.08;97.7
63691;BME280;49837;57.280;27.070;2023-02-24T02:46:11;98811.88;;;-5.03;97.71
63691;BME280;49837;57.280;27.070;2023-02-24T02:48:17;98807.2;;;-4.99;97.77
63691;BME280;49837;57.280;27.070;2023-02-24T02:49:18;98803.0;;;-4.95;97.72
63691;BME280;49837;57.280;27.070;2023-02-24T02:50:26;98800.56;;;-4.95;97.67
63691;BME280;49837;57.280;27.070;2023-02-24T02:51:16;98801.18;;;-4.91;97.59
63691;BME280;49837;57.280;27.070;2023-02-24T02:53:25;98799.38;;;-4.99;97.54
63691;BME280;49837;57.280;27.070;2023-02-24T02:55:30;98796.13;;;-4.98;97.63
63691;BME280;49837;57.280;27.070;2023-02-24T02:56:35;98791.09;;;-4.98;97.62
63691;BME280;49837;57.280;27.070;2023-02-24T02:57:30;98789.12;;;-5.01;97.61
63691;BME280;49837;57.280;27.070;2023-02-24T02:58:33;98786.12;;;-5.01;97.65
63691;BME280;49837;57.280;27.070;2023-02-24T02:59:35;98786.14;;;-4.98;97.69
63691;BME280;49837;57.280;27.070;2023-02-24T03:00:39;98787.07;;;-4.96;97.76
63691;BME280;49837;57.280;27.070;2023-02-24T03:01:36;98781.93;;;-4.98;97.74
63691;BME280;49837;57.280;27.070;2023-02-24T03:02:36;98778.56;;;-5.01;97.78
63691;BME280;49837;57.280;27.070;2023-02-24T03:03:48;98776.69;;;-5.0;97.89
63691;BME280;49837;57.280;27.070;2023-02-24T03:04:43;98777.53;;;-4.97;97.94
63691;BME280;49837;57.280;27.070;2023-02-24T03:06:46;98775.08;;;-4.98;97.99
63691;BME280;49837;57.280;27.070;2023-02-24T03:07:50;98770.61;;;-4.99;98.07
63691;BME280;49837;57.280;27.070;2023-02-24T03:09:52;98765.74;;;-4.96;98.09
63691;BME280;49837;57.280;27.070;2023-02-24T03:10:52;98759.33;;;-4.96;98.05
63691;BME280;49837;57.280;27.070;2023-02-24T03:12:01;98759.02;;;-4.96;98.08
63691;BME280;49837;57.280;27.070;2023-02-24T03:12:58;98757.06;;;-4.97;98.1
63691;BME280;49837;57.280;27.070;2023-02-24T03:13:56;98754.3;;;-4.97;98.15
63691;BME280;49837;57.280;27.070;2023-02-24T03:14:59;98754.05;;;-4.97;98.1
63691;BME280;49837;57.280;27.070;2023-02-24T03:16:00;98754.45;;;-4.96;98.09
63691;BME280;49837;57.280;27.070;2023-02-24T03:17:01;98752.78;;;-4.94;98.13
63691;BME280;49837;57.280;27.070;2023-02-24T03:18:04;98751.88;;;-4.93;98.08
63691;BME280;49837;57.280;27.070;2023-02-24T03:19:05;98750.22;;;-4.89;98.16
63691;BME280;49837;57.280;27.070;2023-02-24T03:21:12;98746.0;;;-4.94;98.2
63691;BME280;49837;57.280;27.070;2023-02-24T03:22:10;98743.5;;;-4.93;98.31
63691;BME280;49837;57.280;27.070;2023-02-24T03:23:15;98739.13;;;-4.92;98.38
63691;BME280;49837;57.280;27.070;2023-02-24T03:24:14;98734.17;;;-4.9;98.44
63691;BME280;49837;57.280;27.070;2023-02-24T03:25:15;98727.61;;;-4.89;98.41
63691;BME280;49837;57.280;27.070;2023-02-24T03:26:22;98728.94;;;-4.93;98.22
63691;BME280;49837;57.280;27.070;2023-02-24T03:33:45;98706.69;;;-4.9;98.53
63691;BME280;49837;57.280;27.070;2023-02-24T03:35:38;98701.3;;;-4.93;98.44
63691;BME280;49837;57.280;27.070;2023-02-24T03:36:36;98702.5;;;-4.94;98.32
63691;BME280;49837;57.280;27.070;2023-02-24T03:37:36;98702.91;;;-4.96;98.32
63691;BME280;49837;57.280;27.070;2023-02-24T03:38:37;98702.73;;;-4.97;98.38
63691;BME280;49837;57.280;27.070;2023-02-24T03:39:37;98702.08;;;-4.95;98.42
63691;BME280;49837;57.280;27.070;2023-02-24T03:40:38;98700.23;;;-4.95;98.48
63691;BME280;49837;57.280;27.070;2023-02-24T03:42:42;98700.68;;;-4.99;98.41
63691;BME280;49837;57.280;27.070;2023-02-24T03:43:44;98694.84;;;-5.05;98.49
63691;BME280;49837;57.280;27.070;2023-02-24T03:44:43;98696.97;;;-5.03;98.59
63691;BME280;49837;57.280;27.070;2023-02-24T03:45:43;98689.27;;;-4.99;98.67
63691;BME280;49837;57.280;27.070;2023-02-24T03:46:44;98686.31;;;-4.94;98.62
63691;BME280;49837;57.280;27.070;2023-02-24T03:47:44;98686.23;;;-4.97;98.55
63691;BME280;49837;57.280;27.070;2023-02-24T03:49:46;98686.44;;;-5.0;98.59
63691;BME280;49837;57.280;27.070;2023-02-24T03:50:46;98686.61;;;-5.0;98.5
63691;BME280;49837;57.280;27.070;2023-02-24T03:55:10;98671.28;;;-5.03;98.61
63691;BME280;49837;57.280;27.070;2023-02-24T04:00:14;98656.54;;;-4.95;98.8
63691;BME280;49837;57.280;27.070;2023-02-24T04:05:28;98639.25;;;-4.92;98.8
63691;BME280;49837;57.280;27.070;2023-02-24T04:08:47;98634.84;;;-4.93;99.03
63691;BME280;49837;57.280;27.070;2023-02-24T04:12:51;98637.44;;;-4.85;98.95
63691;BME280;49837;57.280;27.070;2023-02-24T04:14:01;98638.27;;;-4.82;98.96
63691;BME280;49837;57.280;27.070;2023-02-24T04:15:02;98639.77;;;-4.8;98.98
63691;BME280;49837;57.280;27.070;2023-02-24T04:15:55;98644.16;;;-4.8;98.83
63691;BME280;49837;57.280;27.070;2023-02-24T04:16:55;98639.59;;;-4.79;98.72
63691;BME280;49837;57.280;27.070;2023-02-24T04:18:04;98636.05;;;-4.75;98.67
63691;BME280;49837;57.280;27.070;2023-02-24T04:19:03;98639.5;;;-4.7;98.76
63691;BME280;49837;57.280;27.070;2023-02-24T04:20:04;98643.59;;;-4.64;98.76
63691;BME280;49837;57.280;27.070;2023-02-24T04:21:04;98638.64;;;-4.66;98.66
63691;BME280;49837;57.280;27.070;2023-02-24T04:22:05;98634.52;;;-4.71;98.74
63691;BME280;49837;57.280;27.070;2023-02-24T04:23:07;98627.31;;;-4.68;98.76
63691;BME280;49837;57.280;27.070;2023-02-24T04:24:10;98622.97;;;-4.71;98.76
63691;BME280;49837;57.280;27.070;2023-02-24T04:25:08;98622.32;;;-4.71;98.76
63691;BME280;49837;57.280;27.070;2023-02-24T04:26:10;98619.16;;;-4.68;98.81
63691;BME280;49837;57.280;27.070;2023-02-24T04:27:09;98611.94;;;-4.69;98.85
63691;BME280;49837;57.280;27.070;2023-02-24T04:28:09;98609.59;;;-4.64;98.88
63691;BME280;49837;57.280;27.070;2023-02-24T04:29:12;98606.8;;;-4.67;98.87
63691;BME280;49837;57.280;27.070;2023-02-24T04:30:12;98601.77;;;-4.65;99.0
63691;BME280;49837;57.280;27.070;2023-02-24T04:31:13;98600.17;;;-4.6;99.03
63691;BME280;49837;57.280;27.070;2023-02-24T04:32:15;98607.92;;;-4.59;98.86
63691;BME280;49837;57.280;27.070;2023-02-24T04:33:15;98608.09;;;-4.58;98.74
63691;BME280;49837;57.280;27.070;2023-02-24T04:34:16;98605.0;;;-4.58;98.67
63691;BME280;49837;57.280;27.070;2023-02-24T04:35:19;98603.89;;;-4.54;98.65
63691;BME280;49837;57.280;27.070;2023-02-24T04:36:17;98602.58;;;-4.53;98.66
63691;BME280;49837;57.280;27.070;2023-02-24T04:37:18;98600.95;;;-4.54;98.65
63691;BME280;49837;57.280;27.070;2023-02-24T04:38:18;98600.39;;;-4.53;98.73
63691;BME280;49837;57.280;27.070;2023-02-24T04:39:19;98599.36;;;-4.49;98.82
63691;BME280;49837;57.280;27.070;2023-02-24T04:40:19;98596.19;;;-4.47;98.77
63691;BME280;49837;57.280;27.070;2023-02-24T04:41:19;98597.32;;;-4.49;98.62
63691;BME280;49837;57.280;27.070;2023-02-24T04:42:19;98596.58;;;-4.51;98.49
63691;BME280;49837;57.280;27.070;2023-02-24T04:43:19;98597.22;;;-4.53;98.52
63691;BME280;49837;57.280;27.070;2023-02-24T04:44:21;98596.14;;;-4.55;98.62
63691;BME280;49837;57.280;27.070;2023-02-24T04:45:26;98593.47;;;-4.55;98.87
63691;BME280;49837;57.280;27.070;2023-02-24T04:46:24;98587.61;;;-4.54;99.0
63691;BME280;49837;57.280;27.070;2023-02-24T04:47:25;98587.75;;;-4.55;99.08
63691;BME280;49837;57.280;27.070;2023-02-24T04:48:25;98594.44;;;-4.54;99.19
63691;BME280;49837;57.280;27.070;2023-02-24T04:49:26;98603.42;;;-4.5;99.1
63691;BME280;49837;57.280;27.070;2023-02-24T04:50:33;98597.11;;;-4.45;99.06
63691;BME280;49837;57.280;27.070;2023-02-24T04:51:26;98599.81;;;-4.41;99.03
63691;BME280;49837;57.280;27.070;2023-02-24T04:52:27;98596.94;;;-4.4;99.01
63691;BME280;49837;57.280;27.070;2023-02-24T04:53:27;98600.95;;;-4.4;98.98
63691;BME280;49837;57.280;27.070;2023-02-24T04:54:27;98600.64;;;-4.37;99.0
63691;BME280;49837;57.280;27.070;2023-02-24T04:55:30;98599.19;;;-4.35;98.93
63691;BME280;49837;57.280;27.070;2023-02-24T04:56:29;98597.3;;;-4.36;98.81
63691;BME280;49837;57.280;27.070;2023-02-24T04:57:29;98600.66;;;-4.32;98.79
63691;BME280;49837;57.280;27.070;2023-02-24T04:58:29;98597.09;;;-4.29;98.74
63691;BME280;49837;57.280;27.070;2023-02-24T04:59:30;98600.66;;;-4.29;98.68
63691;BME280;49837;57.280;27.070;2023-02-24T05:00:30;98594.39;;;-4.32;98.65
63691;BME280;49837;57.280;27.070;2023-02-24T05:01:30;98594.88;;;-4.35;98.58
63691;BME280;49837;57.280;27.070;2023-02-24T05:02:31;98594.46;;;-4.34;98.57
63691;BME280;49837;57.280;27.070;2023-02-24T05:03:31;98597.7;;;-4.36;98.63
63691;BME280;49837;57.280;27.070;2023-02-24T05:04:34;98593.07;;;-4.36;98.58
63691;BME280;49837;57.280;27.070;2023-02-24T05:05:32;98591.52;;;-4.4;98.69
63691;BME280;49837;57.280;27.070;2023-02-24T05:06:33;98585.08;;;-4.37;98.84
63691;BME280;49837;57.280;27.070;2023-02-24T05:07:33;98586.86;;;-4.4;98.99
63691;BME280;49837;57.280;27.070;2023-02-24T05:08:34;98585.31;;;-4.41;99.01
63691;BME280;49837;57.280;27.070;2023-02-24T05:09:34;98589.57;;;-4.38;98.97
63691;BME280;49837;57.280;27.070;2023-02-24T05:10:39;98589.14;;;-4.38;98.96
63691;BME280;49837;57.280;27.070;2023-02-24T05:11:37;98585.84;;;-4.36;99.02
63691;BME280;49837;57.280;27.070;2023-02-24T05:12:37;98584.23;;;-4.32;99.22
63691;BME280;49837;57.280;27.070;2023-02-24T05:13:38;98583.89;;;-4.28;99.24
63691;BME280;49837;57.280;27.070;2023-02-24T05:14:38;98582.27;;;-4.27;99.12
63691;BME280;49837;57.280;27.070;2023-02-24T05:15:41;98581.95;;;-4.3;99.03
63691;BME280;49837;57.280;27.070;2023-02-24T05:16:42;98580.0;;;-4.29;98.99
63691;BME280;49837;57.280;27.070;2023-02-24T05:17:40;98579.11;;;-4.28;99.01
63691;BME280;49837;57.280;27.070;2023-02-24T05:18:41;98576.66;;;-4.27;99.08
63691;BME280;49837;57.280;27.070;2023-02-24T05:19:41;98576.34;;;-4.27;98.98
63691;BME280;49837;57.280;27.070;2023-02-24T05:20:45;98576.51;;;-4.25;98.9
63691;BME280;49837;57.280;27.070;2023-02-24T05:21:43;98569.27;;;-4.24;98.91
63691;BME280;49837;57.280;27.070;2023-02-24T05:22:43;98574.34;;;-4.19;98.95
63691;BME280;49837;57.280;27.070;2023-02-24T05:23:45;98572.4;;;-4.18;98.97
63691;BME280;49837;57.280;27.070;2023-02-24T05:24:44;98567.48;;;-4.25;98.96
63691;BME280;49837;57.280;27.070;2023-02-24T05:25:44;98571.31;;;-4.26;99.06
63691;BME280;49837;57.280;27.070;2023-02-24T05:26:45;98566.58;;;-4.24;99.09
63691;BME280;49837;57.280;27.070;2023-02-24T05:27:46;98567.97;;;-4.22;99.25
63691;BME280;49837;57.280;27.070;2023-02-24T05:28:47;98565.61;;;-4.23;99.27
63691;BME280;49837;57.280;27.070;2023-02-24T05:29:46;98567.01;;;-4.21;99.32
63691;BME280;49837;57.280;27.070;2023-02-24T05:30:46;98562.28;;;-4.2;99.33
63691;BME280;49837;57.280;27.070;2023-02-24T05:31:47;98569.12;;;-4.19;99.29
63691;BME280;49837;57.280;27.070;2023-02-24T05:32:47;98566.03;;;-4.21;99.26
63691;BME280;49837;57.280;27.070;2023-02-24T05:33:50;98565.55;;;-4.19;99.29
63691;BME280;49837;57.280;27.070;2023-02-24T05:34:49;98566.12;;;-4.17;99.25
63691;BME280;49837;57.280;27.070;2023-02-24T05:35:49;98567.67;;;-4.15;99.26
63691;BME280;49837;57.280;27.070;2023-02-24T05:36:49;98566.69;;;-4.18;99.24
63691;BME280;49837;57.280;27.070;2023-02-24T05:37:50;98567.98;;;-4.18;99.26
63691;BME280;49837;57.280;27.070;2023-02-24T05:38:52;98570.78;;;-4.15;99.22
63691;BME280;49837;57.280;27.070;2023-02-24T05:39:55;98564.58;;;-4.15;99.16
63691;BME280;49837;57.280;27.070;2023-02-24T05:40:53;98563.28;;;-4.13;99.14
63691;BME280;49837;57.280;27.070;2023-02-24T05:41:54;98561.5;;;-4.13;99.21
63691;BME280;49837;57.280;27.070;2023-02-24T05:42:54;98562.17;;;-4.1;99.15
63691;BME280;49837;57.280;27.070;2023-02-24T05:43:55;98560.31;;;-4.07;99.13
63691;BME280;49837;57.280;27.070;2023-02-24T05:44:55;98557.93;;;-4.08;99.12
63691;BME280;49837;57.280;27.070;2023-02-24T05:45:58;98556.95;;;-4.05;99.1
63691;BME280;49837;57.280;27.070;2023-02-24T05:46:56;98555.97;;;-4.06;99.06
63691;BME280;49837;57.280;27.070;2023-02-24T05:47:56;98550.45;;;-4.09;99.06
63691;BME280;49837;57.280;27.070;2023-02-24T05:48:59;98550.11;;;-4.1;99.0
63691;BME280;49837;57.280;27.070;2023-02-24T05:49:57;98548.49;;;-4.11;98.88
63691;BME280;49837;57.280;27.070;2023-02-24T05:50:58;98549.55;;;-4.1;98.88
63691;BME280;49837;57.280;27.070;2023-02-24T05:52:01;98546.77;;;-4.11;98.89
63691;BME280;49837;57.280;27.070;2023-02-24T05:52:59;98548.32;;;-4.08;98.88
63691;BME280;49837;57.280;27.070;2023-02-24T05:54:07;98545.39;;;-4.1;98.88
63691;BME280;49837;57.280;27.070;2023-02-24T05:55:00;98544.88;;;-4.14;98.97
63691;BME280;49837;57.280;27.070;2023-02-24T05:56:01;98547.83;;;-4.1;99.05
63691;BME280;49837;57.280;27.070;2023-02-24T05:57:07;98545.73;;;-4.09;99.03
63691;BME280;49837;57.280;27.070;2023-02-24T05:58:05;98540.36;;;-4.02;99.04
63691;BME280;49837;57.280;27.070;2023-02-24T05:59:07;98538.25;;;-4.0;99.1
63691;BME280;49837;57.280;27.070;2023-02-24T06:00:07;98537.59;;;-3.98;99.09
63691;BME280;49837;57.280;27.070;2023-02-24T06:01:10;98535.64;;;-4.02;99.12
63691;BME280;49837;57.280;27.070;2023-02-24T06:02:10;98533.77;;;-4.05;99.19
63691;BME280;49837;57.280;27.070;2023-02-24T06:03:09;98532.94;;;-4.03;99.28
63691;BME280;49837;57.280;27.070;2023-02-24T06:04:10;98530.26;;;-4.03;99.33
63691;BME280;49837;57.280;27.070;2023-02-24T06:05:10;98524.33;;;-3.97;99.42
63691;BME280;49837;57.280;27.070;2023-02-24T06:06:11;98525.16;;;-3.92;99.41
63691;BME280;49837;57.280;27.070;2023-02-24T06:07:16;98524.58;;;-3.92;99.28
63691;BME280;49837;57.280;27.070;2023-02-24T06:08:16;98521.67;;;-3.9;99.21
63691;BME280;49837;57.280;27.070;2023-02-24T06:09:16;98518.64;;;-3.86;99.08
63691;BME280;49837;57.280;27.070;2023-02-24T06:10:17;98519.86;;;-3.82;98.99
63691;BME280;49837;57.280;27.070;2023-02-24T06:11:18;98517.91;;;-3.78;98.94
63691;BME280;49837;57.280;27.070;2023-02-24T06:12:19;98516.64;;;-3.75;98.91
63691;BME280;49837;57.280;27.070;2023-02-24T06:13:18;98513.45;;;-3.75;98.85
63691;BME280;49837;57.280;27.070;2023-02-24T06:14:18;98513.61;;;-3.83;98.84
63691;BME280;49837;57.280;27.070;2023-02-24T06:15:18;98510.41;;;-3.85;99.02
63691;BME280;49837;57.280;27.070;2023-02-24T06:16:19;98511.0;;;-3.85;99.09
63691;BME280;49837;57.280;27.070;2023-02-24T06:17:21;98508.62;;;-3.82;99.11
63691;BME280;49837;57.280;27.070;2023-02-24T06:18:20;98508.98;;;-3.75;99.21
63691;BME280;49837;57.280;27.070;2023-02-24T06:19:20;98509.53;;;-3.72;99.17
63691;BME280;49837;57.280;27.070;2023-02-24T06:20:23;98509.86;;;-3.7;98.98
63691;BME280;49837;57.280;27.070;2023-02-24T06:21:21;98503.91;;;-3.72;98.7
63691;BME280;49837;57.280;27.070;2023-02-24T06:22:23;98509.31;;;-3.72;98.72
63691;BME280;49837;57.280;27.070;2023-02-24T06:23:22;98500.49;;;-3.73;98.82